Airfield :
LOGIN :

Register | Disclaimer

   EN    FR    IT 

 










Legend :    VFR   Marginal VFR   IFR   Intensive IFR   Very Intensive IFR
Visi :
Ceiling :
>= 8 km
>= 3000ft
5 to 8 km
1000 to 3000 ft
1500m to 5 km
500 to 1000 ft
800 to 1500m
200 to 500 ft
< 800m
< 200 ft
Symbols :   Thunderstorms  Fog  Heavy snow  Heavy precipitations  Wind > 20 kt
SIGMETs :     Misc.  Thunderstorms  Icing  Turbulence  Mountain Waves  Volcanic Ashes







- Airport Elevation : 1516 ft
- IATA code : AGB


EDMA - Augsburg

CURRENT METAR :
  • 211520Z 24007KT CAVOK 08/04 Q1016

EXPIRED METARs :
  • 211450Z 24006KT 210V270 9999 SCT033 BKN054 09/04 Q1016
  • 211420Z 24009KT 210V270 9999 BKN028 08/04 Q1016
  • 211350Z 23012KT 9999 OVC025 09/04 Q1016
  • 211320Z 23009KT 9999 BKN023 BKN029 OVC062 08/05 Q1016
  • 211250Z 23011KT 210V270 9999 OVC023 07/04 Q1016

TAF TAF EDMA
Valid from the 21 at 15:00 until the 22 at 00:00 UTC


211400Z 2115/2124 23012KT 9999 BKN025
BECMG 2115/2117 24007KT
No reported NOTAMs for that airfield.



MET'MAP, your aeronautical weather chart ! - Copyright ORBIFLY December 2007 - Disclaimer

ORBIFLY MET'MAP TEAM :

Programming & Development : Alexandra Zaïnal
Concept & Development : Baudouin d'Aumeries
Co-Development & Prog : Marc-Olivier Méhu
Technical & hardware support : Manuel Goepfert

Contact : metmap@orbifly.com




SOURCES & CREDITS :

   NOAA